createdAt,value
2022-11-29T00:06:35.914Z,6.99
2022-11-29T00:13:37.578Z,6.98
2022-11-29T00:20:39.337Z,6.99
2022-11-29T00:27:40.882Z,6.98
2022-11-29T00:34:42.764Z,6.81
2022-11-29T00:41:45.038Z,6.94
2022-11-29T00:48:46.674Z,6.96
2022-11-29T00:55:48.693Z,6.88
2022-11-29T01:02:50.269Z,6.93
2022-11-29T01:09:51.838Z,6.87
2022-11-29T01:16:53.421Z,6.89
2022-11-29T01:23:55.009Z,6.86
2022-11-29T01:30:56.687Z,6.93
2022-11-29T01:37:58.268Z,6.92
2022-11-29T01:45:06.726Z,6.89
2022-11-29T01:52:17.634Z,6.94
2022-11-29T01:59:20.481Z,7.03
2022-11-29T02:06:22.041Z,7.04
2022-11-29T02:13:30.092Z,7.06
2022-11-29T02:21:05.200Z,7.07
2022-11-29T02:28:30.185Z,7.03
2022-11-29T02:36:10.939Z,6.13
2022-11-29T02:43:18.525Z,6.16
2022-11-29T02:50:20.296Z,6.15
2022-11-29T02:57:38.794Z,6.13
2022-11-29T03:04:49.499Z,6.19
2022-11-29T03:11:52.546Z,6.26
2022-11-29T03:18:55.926Z,6.14
2022-11-29T03:26:04.852Z,6.16
2022-11-29T03:33:17.019Z,6.19
2022-11-29T03:40:25.460Z,6.17
2022-11-29T03:47:35.887Z,6.07
2022-11-29T03:54:46.702Z,6.15
2022-11-29T04:01:53.652Z,6.10
2022-11-29T04:08:57.713Z,6.06
2022-11-29T04:16:29.123Z,6.07
2022-11-29T04:23:42.607Z,6.19
2022-11-29T04:31:04.580Z,6.20
2022-11-29T04:38:24.869Z,6.16
2022-11-29T04:45:56.239Z,6.16
2022-11-29T04:53:25.686Z,6.03
2022-11-29T05:00:27.247Z,6.09
2022-11-29T05:07:38.298Z,6.12
2022-11-29T05:15:17.646Z,6.11
2022-11-29T05:22:22.112Z,6.13
2022-11-29T05:30:08.652Z,6.18
2022-11-29T05:37:25.436Z,6.24
2022-11-29T05:44:41.699Z,6.22
2022-11-29T05:51:46.165Z,6.14
2022-11-29T05:58:52.854Z,6.13
2022-11-29T06:06:02.910Z,6.10
2022-11-29T06:13:27.667Z,6.13
2022-11-29T06:20:47.902Z,6.09
2022-11-29T06:28:07.094Z,6.12
2022-11-29T06:35:45.851Z,6.10
2022-11-29T06:42:48.869Z,6.06
2022-11-29T06:50:39.767Z,6.19
2022-11-29T06:57:47.224Z,6.10
2022-11-29T07:05:30.560Z,6.09
2022-11-29T07:12:32.298Z,6.07
2022-11-29T07:20:05.918Z,6.05
2022-11-29T07:27:20.411Z,6.10
2022-11-29T07:34:38.857Z,6.12
2022-11-29T07:41:49.854Z,6.22
2022-11-29T07:48:53.510Z,6.18
2022-11-29T07:55:55.070Z,6.21
2022-11-29T08:02:56.671Z,6.15
2022-11-29T08:09:58.250Z,6.34
2022-11-29T08:16:59.815Z,6.47
2022-11-29T08:24:01.380Z,6.43
2022-11-29T08:31:07.700Z,6.44
2022-11-29T08:38:09.266Z,6.57
2022-11-29T08:45:11.147Z,6.63
2022-11-29T08:52:31.213Z,6.61
2022-11-29T08:59:32.790Z,6.63
2022-11-29T09:06:38.170Z,6.71
2022-11-29T09:13:45.073Z,6.79
2022-11-29T09:20:46.618Z,6.98
2022-11-29T09:27:48.239Z,7.11
2022-11-29T09:34:49.860Z,6.98
2022-11-29T09:42:12.378Z,7.08
2022-11-29T09:49:30.155Z,7.17
2022-11-29T09:56:42.336Z,7.21
2022-11-29T10:03:51.673Z,7.21
2022-11-29T10:10:56.305Z,7.33
2022-11-29T10:18:11.052Z,7.40
2022-11-29T10:25:19.245Z,7.28
2022-11-29T10:32:21.497Z,7.24
2022-11-29T10:39:28.898Z,7.18
2022-11-29T10:46:33.005Z,7.24
2022-11-29T10:53:37.806Z,7.19
2022-11-29T11:00:44.589Z,7.29
2022-11-29T11:07:47.394Z,7.23
2022-11-29T11:14:51.077Z,7.31
2022-11-29T11:21:52.727Z,7.40
2022-11-29T11:28:58.964Z,7.31
2022-11-29T11:36:08.419Z,7.36
2022-11-29T11:43:18.277Z,7.54
2022-11-29T11:50:33.780Z,7.58
2022-11-29T11:57:35.363Z,7.59
2022-11-29T12:04:36.919Z,7.64
2022-11-29T12:12:05.369Z,7.71
2022-11-29T12:19:21.929Z,7.68
2022-11-29T12:26:55.899Z,7.64
2022-11-29T12:34:09.296Z,7.65
2022-11-29T12:41:41.188Z,7.63
2022-11-29T12:48:49.327Z,7.72
2022-11-29T12:56:10.879Z,7.73
2022-11-29T13:03:18.157Z,7.48
2022-11-29T13:11:00.549Z,7.63
2022-11-29T13:18:14.861Z,7.73
2022-11-29T13:25:24.687Z,7.71
2022-11-29T13:32:37.261Z,7.65
2022-11-29T13:39:48.717Z,7.52
2022-11-29T13:46:56.535Z,7.49
2022-11-29T13:54:00.997Z,7.53
2022-11-29T14:01:09.650Z,7.56
2022-11-29T14:08:54.533Z,7.61
2022-11-29T14:15:58.895Z,7.60
2022-11-29T14:23:06.500Z,7.66
2022-11-29T14:30:32.272Z,7.75
2022-11-29T14:37:55.385Z,7.66
2022-11-29T14:45:00.624Z,7.66
2022-11-29T14:52:14.417Z,7.64
2022-11-29T14:59:38.834Z,7.65
2022-11-29T15:06:46.191Z,7.54
2022-11-29T15:13:59.060Z,7.54
2022-11-29T15:21:18.963Z,7.60
2022-11-29T15:28:22.981Z,7.51
2022-11-29T15:35:24.561Z,7.62
2022-11-29T15:42:31.253Z,7.54
2022-11-29T15:49:34.189Z,7.54
2022-11-29T15:57:02.955Z,7.61
2022-11-29T16:04:05.700Z,7.48
2022-11-29T16:11:07.332Z,7.52
2022-11-29T16:18:13.028Z,7.53
2022-11-29T16:25:18.940Z,7.52
2022-11-29T16:32:33.948Z,7.54
2022-11-29T16:39:35.587Z,7.50
2022-11-29T16:46:38.970Z,7.43
2022-11-29T16:53:47.528Z,7.46
2022-11-29T17:00:49.121Z,7.49
2022-11-29T17:07:50.893Z,7.50
2022-11-29T17:14:52.561Z,7.46
2022-11-29T17:21:54.120Z,7.43
2022-11-29T17:28:55.725Z,7.38
2022-11-29T17:35:57.443Z,7.50
2022-11-29T17:42:59.044Z,7.51
2022-11-29T17:50:00.681Z,7.36
2022-11-29T17:57:04.409Z,7.39
2022-11-29T18:04:06.195Z,7.42
2022-11-29T18:11:12.523Z,7.41
2022-11-29T18:18:14.159Z,7.40
2022-11-29T18:25:38.160Z,7.44
2022-11-29T18:32:37.371Z,7.44
2022-11-29T18:39:38.945Z,7.40
2022-11-29T18:46:41.515Z,7.44
2022-11-29T18:53:43.178Z,7.39
2022-11-29T19:00:44.845Z,7.44
2022-11-29T19:07:46.512Z,7.40
2022-11-29T19:14:50.015Z,7.32
2022-11-29T19:21:52.181Z,7.34
2022-11-29T19:28:53.850Z,7.29
2022-11-29T19:35:55.510Z,7.31
2022-11-29T19:42:57.068Z,7.27
2022-11-29T19:50:02.357Z,7.39
2022-11-29T19:57:04.542Z,7.37
2022-11-29T20:04:06.132Z,7.37
2022-11-29T20:11:27.964Z,7.30
2022-11-29T20:18:31.304Z,7.27
2022-11-29T20:25:33.676Z,7.31
2022-11-29T20:32:35.377Z,7.28
2022-11-29T20:39:58.218Z,7.34
2022-11-29T20:47:00.073Z,7.24
2022-11-29T20:54:01.660Z,7.29
2022-11-29T21:01:03.491Z,7.23
2022-11-29T21:08:05.275Z,7.32
2022-11-29T21:15:08.781Z,7.23
2022-11-29T21:22:39.509Z,7.17
2022-11-29T21:29:41.356Z,7.04
2022-11-29T21:36:42.958Z,7.06
2022-11-29T21:44:05.536Z,7.08
2022-11-29T21:51:06.733Z,7.17
2022-11-29T21:58:08.331Z,7.22
2022-11-29T22:05:09.995Z,7.09
2022-11-29T22:12:32.366Z,7.10
2022-11-29T22:19:34.310Z,7.08
2022-11-29T22:26:36.263Z,7.13
2022-11-29T22:33:38.005Z,7.13
2022-11-29T22:40:40.460Z,7.21
2022-11-29T22:47:42.044Z,7.11
2022-11-29T22:54:43.820Z,7.13
2022-11-29T23:01:45.675Z,7.07
2022-11-29T23:08:47.570Z,7.00
2022-11-29T23:15:49.176Z,7.00
2022-11-29T23:22:50.795Z,7.07
2022-11-29T23:29:52.756Z,7.12
2022-11-29T23:36:54.355Z,7.06
2022-11-29T23:43:56.081Z,7.11
2022-11-29T23:50:57.769Z,7.13
2022-11-29T23:58:00.703Z,7.11
